createdAt,value
2023-01-07T00:00:24.498Z,0.90
2023-01-07T00:01:24.446Z,1.20
2023-01-07T00:02:24.651Z,0.90
2023-01-07T00:03:24.485Z,1.40
2023-01-07T00:04:24.440Z,1.40
2023-01-07T00:05:24.454Z,1.50
2023-01-07T00:06:24.431Z,1.40
2023-01-07T00:07:24.425Z,1.10
2023-01-07T00:08:24.438Z,0.90
2023-01-07T00:09:24.437Z,1.00
2023-01-07T00:10:24.446Z,0.90
2023-01-07T00:11:24.420Z,0.90
2023-01-07T00:12:24.426Z,1.10
2023-01-07T00:13:24.417Z,0.90
2023-01-07T00:14:24.428Z,0.80
2023-01-07T00:15:24.425Z,1.00
2023-01-07T00:16:24.539Z,1.60
2023-01-07T00:17:24.401Z,0.90
2023-01-07T00:18:24.541Z,1.50
2023-01-07T00:19:24.414Z,1.60
2023-01-07T00:20:24.425Z,1.00
2023-01-07T00:21:24.404Z,0.80
2023-01-07T00:22:24.413Z,0.80
2023-01-07T00:23:24.404Z,0.80
2023-01-07T00:24:24.396Z,1.00
2023-01-07T00:25:24.383Z,0.70
2023-01-07T00:26:24.394Z,0.90
2023-01-07T00:27:24.385Z,1.20
2023-01-07T00:28:24.388Z,1.00
2023-01-07T00:29:24.393Z,1.00
2023-01-07T00:30:24.376Z,1.00
2023-01-07T00:31:24.489Z,1.10
2023-01-07T00:32:24.390Z,0.90
2023-01-07T00:33:24.373Z,1.60
2023-01-07T00:34:24.481Z,1.00
2023-01-07T00:35:24.378Z,1.00
2023-01-07T00:36:24.353Z,1.00
2023-01-07T00:37:24.376Z,1.30
2023-01-07T00:38:24.375Z,1.10
2023-01-07T00:39:24.363Z,1.10
2023-01-07T00:40:24.345Z,1.30
2023-01-07T00:41:24.347Z,0.90
2023-01-07T00:42:24.340Z,1.10
2023-01-07T00:43:24.371Z,1.30
2023-01-07T00:44:24.332Z,1.30
2023-01-07T00:45:24.361Z,1.80
2023-01-07T00:46:24.352Z,1.60
2023-01-07T00:47:24.341Z,0.90
2023-01-07T00:48:24.329Z,0.90
2023-01-07T00:49:24.345Z,0.90
2023-01-07T00:50:24.433Z,1.70
2023-01-07T00:51:24.338Z,1.50
2023-01-07T00:52:24.318Z,0.90
2023-01-07T00:53:24.339Z,0.70
2023-01-07T00:54:24.312Z,1.20
2023-01-07T00:55:24.325Z,1.20
2023-01-07T00:56:24.306Z,0.90
2023-01-07T00:57:24.318Z,1.00
2023-01-07T00:58:24.358Z,1.20
2023-01-07T00:59:24.321Z,0.90
2023-01-07T01:00:24.312Z,1.10
2023-01-07T01:01:24.456Z,0.80
2023-01-07T01:02:24.422Z,1.40
2023-01-07T01:03:24.306Z,1.00
2023-01-07T01:04:24.321Z,0.90
2023-01-07T01:05:24.311Z,0.80
2023-01-07T01:06:24.421Z,0.80
2023-01-07T01:07:24.298Z,0.90
2023-01-07T01:08:24.302Z,1.10
2023-01-07T01:09:24.293Z,1.00
2023-01-07T01:10:24.284Z,1.10
2023-01-07T01:11:24.280Z,0.90
2023-01-07T01:12:24.268Z,1.20
2023-01-07T01:13:24.292Z,1.20
2023-01-07T01:14:24.279Z,0.80
2023-01-07T01:15:24.284Z,1.40
2023-01-07T01:16:24.301Z,1.00
2023-01-07T01:17:24.275Z,1.00
2023-01-07T01:18:24.277Z,1.40
2023-01-07T01:19:24.253Z,1.20
2023-01-07T01:20:24.256Z,0.90
2023-01-07T01:21:24.269Z,0.80
2023-01-07T01:22:24.395Z,1.20
2023-01-07T01:23:24.266Z,1.10
2023-01-07T01:24:24.253Z,0.80
2023-01-07T01:25:24.256Z,0.90
2023-01-07T01:26:24.239Z,1.20
2023-01-07T01:27:24.253Z,0.80
2023-01-07T01:28:24.245Z,0.90
2023-01-07T01:29:24.241Z,0.70
2023-01-07T01:30:24.229Z,0.90
2023-01-07T01:31:24.318Z,0.80
2023-01-07T01:32:24.238Z,0.80
2023-01-07T01:33:24.224Z,1.00
2023-01-07T01:34:24.214Z,1.50
2023-01-07T01:35:24.219Z,1.70
2023-01-07T01:36:24.234Z,1.00
2023-01-07T01:37:24.225Z,1.00
2023-01-07T01:38:24.323Z,0.80
2023-01-07T01:39:24.231Z,0.90
2023-01-07T01:40:24.221Z,1.10
2023-01-07T01:41:24.207Z,1.10
2023-01-07T01:42:24.211Z,1.30
2023-01-07T01:43:24.208Z,1.20
2023-01-07T01:44:24.196Z,0.80
2023-01-07T01:45:24.207Z,0.80
2023-01-07T01:46:24.441Z,1.00
2023-01-07T01:47:24.201Z,1.20
2023-01-07T01:48:24.212Z,0.80
2023-01-07T01:49:24.223Z,1.00
2023-01-07T01:50:24.193Z,1.20
2023-01-07T01:51:24.181Z,1.10
2023-01-07T01:52:24.194Z,1.60
2023-01-07T01:53:24.192Z,1.20
2023-01-07T01:54:24.308Z,0.80
2023-01-07T01:55:24.188Z,1.60
2023-01-07T01:56:24.168Z,1.30
2023-01-07T01:57:24.179Z,0.90
2023-01-07T01:58:24.217Z,0.90
2023-01-07T01:59:24.188Z,1.20
2023-01-07T02:00:24.171Z,0.80
2023-01-07T02:01:24.353Z,0.80
2023-01-07T02:02:24.226Z,0.80
2023-01-07T02:03:24.197Z,0.90
2023-01-07T02:04:24.151Z,1.00
2023-01-07T02:05:24.155Z,0.90
2023-01-07T02:06:24.161Z,0.80
2023-01-07T02:07:24.169Z,1.20
2023-01-07T02:08:24.150Z,0.80
2023-01-07T02:09:24.152Z,0.80
2023-01-07T02:10:24.258Z,1.30
2023-01-07T02:11:24.155Z,0.90
2023-01-07T02:12:24.133Z,0.80
2023-01-07T02:13:24.132Z,0.90
2023-01-07T02:14:24.128Z,0.80
2023-01-07T02:15:24.152Z,0.90
2023-01-07T02:16:24.212Z,0.90
2023-01-07T02:17:24.122Z,0.80
2023-01-07T02:18:24.129Z,1.00
2023-01-07T02:19:24.118Z,0.80
2023-01-07T02:20:24.134Z,0.90
2023-01-07T02:21:24.135Z,0.80
2023-01-07T02:22:24.138Z,0.80
2023-01-07T02:23:24.121Z,1.00
2023-01-07T02:24:24.136Z,1.50
2023-01-07T02:25:24.121Z,0.80
2023-01-07T02:26:24.216Z,0.90
2023-01-07T02:27:24.111Z,1.20
2023-01-07T02:28:24.091Z,1.20
2023-01-07T02:29:24.107Z,0.80
2023-01-07T02:30:24.102Z,0.80
2023-01-07T02:31:24.287Z,0.80
2023-01-07T02:32:24.086Z,1.20
2023-01-07T02:33:24.084Z,0.90
2023-01-07T02:34:24.102Z,0.90
2023-01-07T02:35:24.083Z,0.90
2023-01-07T02:36:24.073Z,1.20
2023-01-07T02:37:24.082Z,0.80
2023-01-07T02:38:24.072Z,0.80
2023-01-07T02:39:24.075Z,0.90
2023-01-07T02:40:24.088Z,1.20
2023-01-07T02:41:24.085Z,1.10
2023-01-07T02:42:24.179Z,1.00
2023-01-07T02:43:24.061Z,0.90
2023-01-07T02:44:24.059Z,1.20
2023-01-07T02:45:24.072Z,0.90
2023-01-07T02:46:24.067Z,0.80
2023-01-07T02:47:24.072Z,0.90
2023-01-07T02:48:24.050Z,1.50
2023-01-07T02:49:24.067Z,1.20
2023-01-07T02:50:24.043Z,0.80
2023-01-07T02:51:24.041Z,0.90
2023-01-07T02:52:24.054Z,0.70
2023-01-07T02:53:24.064Z,1.10
2023-01-07T02:54:24.032Z,0.80
2023-01-07T02:55:24.051Z,0.90
2023-01-07T02:56:24.041Z,1.00
2023-01-07T02:57:24.043Z,0.90
2023-01-07T02:58:24.141Z,0.80
2023-01-07T02:59:24.023Z,0.70
2023-01-07T03:00:24.030Z,0.80
2023-01-07T03:01:24.192Z,1.20
2023-01-07T03:02:24.034Z,0.90
2023-01-07T03:03:24.037Z,1.00
2023-01-07T03:04:24.068Z,0.80
2023-01-07T03:05:24.007Z,1.00
2023-01-07T03:06:24.018Z,0.70
2023-01-07T03:07:24.017Z,0.80
2023-01-07T03:08:24.026Z,0.90
2023-01-07T03:09:24.009Z,1.00
2023-01-07T03:10:24.013Z,0.90
2023-01-07T03:11:24.012Z,0.70
2023-01-07T03:12:23.995Z,0.90
2023-01-07T03:13:24.027Z,0.80
2023-01-07T03:14:24.126Z,0.70
2023-01-07T03:15:24.015Z,0.80
2023-01-07T03:16:24.050Z,1.10
2023-01-07T03:17:24.046Z,1.00
2023-01-07T03:18:23.993Z,0.80
2023-01-07T03:19:23.991Z,1.00
2023-01-07T03:20:23.997Z,0.90
2023-01-07T03:21:23.983Z,0.80
2023-01-07T03:22:23.982Z,0.80
2023-01-07T03:23:23.972Z,0.90
2023-01-07T03:24:23.980Z,1.30
2023-01-07T03:25:23.974Z,0.80
2023-01-07T03:26:23.974Z,0.80
2023-01-07T03:27:23.957Z,0.80
2023-01-07T03:28:23.965Z,0.90
2023-01-07T03:29:23.951Z,1.30
2023-01-07T03:30:24.112Z,0.90
2023-01-07T03:31:23.983Z,0.90
2023-01-07T03:32:23.960Z,0.60
2023-01-07T03:33:23.958Z,0.80
2023-01-07T03:34:23.958Z,1.00
2023-01-07T03:35:23.961Z,0.70
2023-01-07T03:36:23.937Z,0.80
2023-01-07T03:37:23.932Z,0.90
2023-01-07T03:38:23.932Z,0.90
2023-01-07T03:39:23.935Z,0.90
2023-01-07T03:40:23.921Z,1.00
2023-01-07T03:41:23.927Z,1.20
2023-01-07T03:42:23.938Z,0.80
2023-01-07T03:43:23.929Z,0.80
2023-01-07T03:44:23.923Z,0.80
2023-01-07T03:45:23.926Z,1.00
2023-01-07T03:46:24.063Z,1.30
2023-01-07T03:47:23.909Z,0.80
2023-01-07T03:48:23.917Z,1.00
2023-01-07T03:49:23.931Z,0.70
2023-01-07T03:50:23.893Z,0.90
2023-01-07T03:51:23.916Z,0.70
2023-01-07T03:52:23.916Z,1.10
2023-01-07T03:53:23.905Z,0.80
2023-01-07T03:54:23.898Z,1.30
2023-01-07T03:55:23.893Z,0.90
2023-01-07T03:56:23.906Z,0.80
2023-01-07T03:57:23.891Z,0.80
2023-01-07T03:58:23.878Z,0.80
2023-01-07T03:59:23.888Z,0.80
2023-01-07T04:00:23.892Z,0.80
2023-01-07T04:01:24.016Z,0.80
2023-01-07T04:02:23.991Z,1.00
2023-01-07T04:03:23.867Z,0.90
2023-01-07T04:04:23.918Z,0.70
2023-01-07T04:05:23.946Z,1.10
2023-01-07T04:06:23.918Z,1.20
2023-01-07T04:07:23.918Z,0.80
2023-01-07T04:08:23.849Z,1.00
2023-01-07T04:09:23.868Z,1.20
2023-01-07T04:10:23.861Z,0.80
2023-01-07T04:11:23.867Z,0.80
2023-01-07T04:12:23.845Z,1.30
2023-01-07T04:13:23.868Z,0.90
2023-01-07T04:14:23.848Z,0.80
2023-01-07T04:15:23.867Z,0.90
2023-01-07T04:16:23.848Z,0.80
2023-01-07T04:17:23.853Z,0.90
2023-01-07T04:18:23.969Z,0.80
2023-01-07T04:19:23.850Z,1.20
2023-01-07T04:20:23.834Z,0.70
2023-01-07T04:21:23.839Z,1.30
2023-01-07T04:22:23.815Z,1.00
2023-01-07T04:23:23.832Z,0.70
2023-01-07T04:24:23.815Z,0.70
2023-01-07T04:25:23.813Z,0.70
2023-01-07T04:26:23.820Z,1.10
2023-01-07T04:27:23.811Z,0.80
2023-01-07T04:28:23.830Z,0.90
2023-01-07T04:29:23.837Z,1.10
2023-01-07T04:30:23.818Z,0.80
2023-01-07T04:31:23.827Z,0.90
2023-01-07T04:32:23.805Z,0.80
2023-01-07T04:33:23.793Z,0.80
2023-01-07T04:34:23.917Z,1.20
2023-01-07T04:35:23.792Z,1.10
2023-01-07T04:36:23.804Z,0.70
2023-01-07T04:37:23.796Z,1.00
2023-01-07T04:38:23.802Z,0.90
2023-01-07T04:39:23.801Z,0.90
2023-01-07T04:40:23.784Z,0.80
2023-01-07T04:41:23.779Z,0.80
2023-01-07T04:42:23.801Z,0.90
2023-01-07T04:43:23.765Z,1.10
2023-01-07T04:44:23.769Z,0.90
2023-01-07T04:45:23.784Z,1.00
2023-01-07T04:46:23.830Z,0.80
2023-01-07T04:47:23.779Z,1.00
2023-01-07T04:48:23.766Z,0.70
2023-01-07T04:49:23.770Z,0.70
2023-01-07T04:50:23.869Z,0.80
2023-01-07T04:51:23.763Z,1.00
2023-01-07T04:52:23.777Z,0.70
2023-01-07T04:53:23.766Z,0.70
2023-01-07T04:54:23.759Z,0.80
2023-01-07T04:55:23.773Z,0.80
2023-01-07T04:56:23.770Z,0.90
2023-01-07T04:57:23.739Z,0.80
2023-01-07T04:58:23.755Z,1.10
2023-01-07T04:59:23.745Z,0.80
2023-01-07T05:00:23.743Z,1.00
2023-01-07T05:01:23.931Z,0.80
2023-01-07T05:02:23.744Z,0.90
2023-01-07T05:03:23.730Z,0.70
2023-01-07T05:04:23.821Z,1.10
2023-01-07T05:05:23.726Z,0.80
2023-01-07T05:06:23.823Z,1.10
2023-01-07T05:07:23.717Z,0.70
2023-01-07T05:08:23.720Z,0.70
2023-01-07T05:09:23.703Z,1.00
2023-01-07T05:10:23.714Z,0.90
2023-01-07T05:11:23.696Z,1.10
2023-01-07T05:12:23.715Z,0.80
2023-01-07T05:13:23.731Z,0.90
2023-01-07T05:14:23.704Z,0.80
2023-01-07T05:15:23.712Z,0.80
2023-01-07T05:16:23.738Z,0.70
2023-01-07T05:17:23.701Z,0.80
2023-01-07T05:18:23.705Z,0.90
2023-01-07T05:19:23.693Z,0.90
2023-01-07T05:20:23.694Z,0.80
2023-01-07T05:21:23.692Z,0.90
2023-01-07T05:22:23.808Z,0.70
2023-01-07T05:23:23.682Z,0.90
2023-01-07T05:24:23.685Z,0.90
2023-01-07T05:25:23.669Z,0.80
2023-01-07T05:26:23.682Z,0.80
2023-01-07T05:27:23.671Z,1.00
2023-01-07T05:28:23.670Z,0.70
2023-01-07T05:29:23.659Z,0.70
2023-01-07T05:30:23.660Z,0.90
2023-01-07T05:31:23.650Z,0.90
2023-01-07T05:32:23.649Z,0.70
2023-01-07T05:33:23.654Z,0.80
2023-01-07T05:34:23.650Z,1.20
2023-01-07T05:35:23.659Z,0.90
2023-01-07T05:36:23.655Z,0.80
2023-01-07T05:37:23.631Z,0.80
2023-01-07T05:38:23.758Z,0.80
2023-01-07T05:39:23.643Z,0.80
2023-01-07T05:40:23.633Z,0.80
2023-01-07T05:41:23.642Z,0.80
2023-01-07T05:42:23.628Z,0.70
2023-01-07T05:43:23.631Z,0.70
2023-01-07T05:44:23.624Z,1.20
2023-01-07T05:45:23.613Z,0.90
2023-01-07T05:46:23.655Z,0.80
2023-01-07T05:47:23.618Z,0.70
2023-01-07T05:48:23.666Z,0.70
2023-01-07T05:49:23.619Z,0.90
2023-01-07T05:50:23.620Z,0.80
2023-01-07T05:51:23.602Z,0.80
2023-01-07T05:52:23.618Z,0.90
2023-01-07T05:53:23.603Z,1.10
2023-01-07T05:54:23.708Z,0.80
2023-01-07T05:55:23.589Z,0.80
2023-01-07T05:56:23.590Z,1.00
2023-01-07T05:57:23.590Z,1.10
2023-01-07T05:58:23.593Z,1.00
2023-01-07T05:59:23.593Z,0.90
2023-01-07T06:00:23.580Z,0.70
2023-01-07T06:01:23.628Z,0.70
2023-01-07T06:02:23.590Z,0.90
2023-01-07T06:03:23.614Z,0.90
2023-01-07T06:04:23.591Z,0.80
2023-01-07T06:05:23.565Z,1.00
2023-01-07T06:06:23.563Z,0.70
2023-01-07T06:07:23.572Z,0.80
2023-01-07T06:08:23.568Z,0.70
2023-01-07T06:09:23.565Z,0.80
2023-01-07T06:10:23.675Z,0.70
2023-01-07T06:11:23.568Z,0.80
2023-01-07T06:12:23.549Z,0.70
2023-01-07T06:13:23.564Z,1.00
2023-01-07T06:14:23.572Z,0.80
2023-01-07T06:15:23.549Z,0.80
2023-01-07T06:16:23.553Z,1.10
2023-01-07T06:17:23.530Z,0.80
2023-01-07T06:18:23.548Z,0.70
2023-01-07T06:19:23.554Z,1.00
2023-01-07T06:20:23.559Z,0.70
2023-01-07T06:21:23.541Z,0.70
2023-01-07T06:22:23.524Z,0.90
2023-01-07T06:23:23.527Z,0.90
2023-01-07T06:24:23.532Z,0.80
2023-01-07T06:25:23.542Z,0.80
2023-01-07T06:26:23.627Z,0.70
2023-01-07T06:27:23.530Z,0.80
2023-01-07T06:28:23.512Z,0.70
2023-01-07T06:29:23.505Z,0.70
2023-01-07T06:30:23.520Z,1.00
2023-01-07T06:31:23.539Z,0.80
2023-01-07T06:32:23.514Z,0.80
2023-01-07T06:33:23.494Z,0.70
2023-01-07T06:34:23.490Z,0.80
2023-01-07T06:35:23.490Z,1.10
2023-01-07T06:36:23.493Z,0.80
2023-01-07T06:37:23.501Z,0.70
2023-01-07T06:38:23.484Z,1.00
2023-01-07T06:39:23.494Z,0.90
2023-01-07T06:40:23.491Z,0.90
2023-01-07T06:41:23.474Z,0.90
2023-01-07T06:42:23.767Z,0.70
2023-01-07T06:43:23.475Z,0.90
2023-01-07T06:44:23.504Z,0.80
2023-01-07T06:45:23.480Z,0.80
2023-01-07T06:46:23.544Z,1.20
2023-01-07T06:47:23.459Z,1.00
2023-01-07T06:48:23.470Z,0.80
2023-01-07T06:49:23.465Z,0.70
2023-01-07T06:50:23.458Z,0.70
2023-01-07T06:51:23.458Z,0.70
2023-01-07T06:52:23.508Z,0.90
2023-01-07T06:53:23.472Z,0.80
2023-01-07T06:54:23.448Z,0.90
2023-01-07T06:55:23.454Z,0.70
2023-01-07T06:56:23.451Z,0.80
2023-01-07T06:57:23.435Z,0.70
2023-01-07T06:58:23.558Z,0.80
2023-01-07T06:59:23.452Z,0.70
2023-01-07T07:00:23.430Z,0.80
2023-01-07T07:01:23.557Z,0.70
2023-01-07T07:02:23.520Z,0.80
2023-01-07T07:03:23.422Z,0.90
2023-01-07T07:04:23.426Z,0.80
2023-01-07T07:05:23.428Z,0.90
2023-01-07T07:06:23.418Z,0.90
2023-01-07T07:07:23.417Z,0.80
2023-01-07T07:08:23.419Z,0.70
2023-01-07T07:09:23.416Z,0.80
2023-01-07T07:10:23.428Z,0.70
2023-01-07T07:11:23.392Z,0.80
2023-01-07T07:12:23.395Z,0.80
2023-01-07T07:13:23.399Z,0.70
2023-01-07T07:14:23.427Z,0.80
2023-01-07T07:15:23.384Z,0.80
2023-01-07T07:16:23.423Z,0.80
2023-01-07T07:17:23.393Z,1.20
2023-01-07T07:18:23.378Z,0.70
2023-01-07T07:19:23.382Z,0.70
2023-01-07T07:20:23.400Z,0.80
2023-01-07T07:21:23.397Z,0.80
2023-01-07T07:22:23.390Z,0.70
2023-01-07T07:23:23.371Z,0.80
2023-01-07T07:24:23.382Z,0.90
2023-01-07T07:25:23.362Z,0.70
2023-01-07T07:26:23.358Z,0.60
2023-01-07T07:27:23.372Z,0.70
2023-01-07T07:28:23.375Z,0.80
2023-01-07T07:29:23.361Z,0.70
2023-01-07T07:30:23.473Z,0.70
2023-01-07T07:31:23.362Z,0.60
2023-01-07T07:32:23.354Z,0.80
2023-01-07T07:33:23.349Z,0.70
2023-01-07T07:34:23.357Z,0.90
2023-01-07T07:35:23.338Z,1.00
2023-01-07T07:36:23.343Z,0.80
2023-01-07T07:37:23.347Z,0.70
2023-01-07T07:38:23.342Z,0.80
2023-01-07T07:39:23.374Z,0.70
2023-01-07T07:40:23.338Z,0.90
2023-01-07T07:41:23.930Z,0.90
2023-01-07T07:42:23.325Z,0.90
2023-01-07T07:43:23.316Z,0.80
2023-01-07T07:44:23.318Z,1.00
2023-01-07T07:45:23.325Z,0.70
2023-01-07T07:46:23.514Z,1.00
2023-01-07T07:47:23.300Z,0.90
2023-01-07T07:48:23.305Z,0.80
2023-01-07T07:49:23.319Z,0.80
2023-01-07T07:50:23.300Z,1.00
2023-01-07T07:51:23.304Z,0.70
2023-01-07T07:52:23.307Z,0.90
2023-01-07T07:53:23.306Z,0.90
2023-01-07T07:54:24.066Z,0.90
2023-01-07T07:55:26.353Z,0.80
2023-01-07T07:56:23.304Z,0.70
2023-01-07T07:57:23.289Z,0.90
2023-01-07T07:58:23.281Z,0.80
2023-01-07T07:59:23.288Z,0.90
2023-01-07T08:00:23.286Z,0.80
2023-01-07T08:01:23.417Z,0.70
2023-01-07T08:02:23.457Z,0.80
2023-01-07T08:03:23.336Z,0.80
2023-01-07T08:04:23.270Z,0.80
2023-01-07T08:05:23.282Z,0.80
2023-01-07T08:06:23.284Z,0.80
2023-01-07T08:07:32.424Z,0.70
2023-01-07T08:08:23.265Z,1.00
2023-01-07T08:09:23.267Z,0.70
2023-01-07T08:10:23.259Z,0.90
2023-01-07T08:11:23.252Z,0.70
2023-01-07T08:12:23.241Z,0.70
2023-01-07T08:13:23.258Z,0.70
2023-01-07T08:14:23.265Z,0.80
2023-01-07T08:15:23.250Z,0.70
2023-01-07T08:16:23.312Z,0.70
2023-01-07T08:17:23.226Z,0.70
2023-01-07T08:18:23.369Z,0.80
2023-01-07T08:19:23.223Z,0.80
2023-01-07T08:20:23.233Z,1.20
2023-01-07T08:21:23.222Z,0.80
2023-01-07T08:22:23.232Z,0.70
2023-01-07T08:23:23.209Z,0.70
2023-01-07T08:24:23.217Z,0.80
2023-01-07T08:25:23.226Z,0.80
2023-01-07T08:26:23.227Z,0.60
2023-01-07T08:27:23.216Z,0.70
2023-01-07T08:28:23.225Z,0.80
2023-01-07T08:29:23.198Z,0.80
2023-01-07T08:30:23.207Z,0.70
2023-01-07T08:31:23.283Z,1.00
2023-01-07T08:32:23.240Z,0.80
2023-01-07T08:33:23.206Z,0.70
2023-01-07T08:34:24.959Z,1.00
2023-01-07T08:35:23.210Z,0.80
2023-01-07T08:36:23.703Z,0.80
2023-01-07T08:37:23.191Z,0.70
2023-01-07T08:38:23.184Z,0.70
2023-01-07T08:39:23.186Z,0.70
2023-01-07T08:40:23.194Z,0.70
2023-01-07T08:41:23.224Z,0.80
2023-01-07T08:42:23.181Z,0.70
2023-01-07T08:43:23.185Z,0.80
2023-01-07T08:44:23.189Z,0.80
2023-01-07T08:45:23.175Z,0.70
2023-01-07T08:46:23.243Z,0.70
2023-01-07T08:47:23.178Z,0.80
2023-01-07T08:48:23.164Z,0.70
2023-01-07T08:49:23.188Z,0.80
2023-01-07T08:50:23.283Z,0.70
2023-01-07T08:51:23.170Z,0.80
2023-01-07T08:52:23.169Z,4.30
2023-01-07T08:53:23.142Z,3.70
2023-01-07T08:54:23.137Z,4.00
2023-01-07T08:55:23.144Z,3.10
2023-01-07T08:56:23.147Z,3.90
2023-01-07T08:57:23.227Z,3.60
2023-01-07T08:58:23.122Z,4.10
2023-01-07T08:59:23.144Z,4.00
2023-01-07T09:00:23.116Z,3.30
2023-01-07T09:01:23.241Z,2.80
2023-01-07T09:02:23.221Z,4.60
2023-01-07T09:03:23.134Z,2.20
2023-01-07T09:04:23.124Z,2.90
2023-01-07T09:05:23.125Z,2.90
2023-01-07T09:06:23.229Z,2.90
2023-01-07T09:07:23.118Z,2.90
2023-01-07T09:08:23.136Z,3.50
2023-01-07T09:09:23.184Z,3.60
2023-01-07T09:10:23.115Z,2.70
2023-01-07T09:11:23.154Z,2.50
2023-01-07T09:12:23.087Z,2.90
2023-01-07T09:13:23.135Z,2.80
2023-01-07T09:14:23.148Z,2.40
2023-01-07T09:15:23.138Z,2.70
2023-01-07T09:16:23.190Z,2.50
2023-01-07T09:17:24.252Z,3.20
2023-01-07T09:18:23.091Z,2.70
2023-01-07T09:19:23.076Z,2.90
2023-01-07T09:20:23.083Z,3.60
2023-01-07T09:21:23.110Z,2.50
2023-01-07T09:22:23.203Z,3.10
2023-01-07T09:23:23.083Z,2.90
2023-01-07T09:24:23.084Z,2.10
2023-01-07T09:25:23.078Z,2.20
2023-01-07T09:26:23.082Z,2.90
2023-01-07T09:27:23.090Z,3.10
2023-01-07T09:28:23.076Z,2.40
2023-01-07T09:29:23.071Z,2.20
2023-01-07T09:30:23.163Z,2.50
2023-01-07T09:31:23.137Z,3.60
2023-01-07T09:32:23.069Z,2.60
2023-01-07T09:33:23.063Z,2.10
2023-01-07T09:34:23.066Z,2.60
2023-01-07T09:35:23.061Z,2.40
2023-01-07T09:36:23.099Z,2.20
2023-01-07T09:37:23.059Z,3.10
2023-01-07T09:38:23.200Z,2.70
2023-01-07T09:39:23.067Z,2.50
2023-01-07T09:40:23.137Z,2.40
2023-01-07T09:41:23.045Z,2.40
2023-01-07T09:42:23.045Z,2.60
2023-01-07T09:43:23.045Z,3.30
2023-01-07T09:44:23.034Z,2.10
2023-01-07T09:45:23.049Z,2.50
2023-01-07T09:46:23.039Z,3.10
2023-01-07T09:47:23.042Z,2.70
2023-01-07T09:48:23.045Z,1.60
2023-01-07T09:49:23.029Z,1.80
2023-01-07T09:50:25.086Z,3.10
2023-01-07T09:51:23.036Z,2.00
2023-01-07T09:52:23.036Z,2.10
2023-01-07T09:53:23.012Z,2.20
2023-01-07T09:54:23.143Z,2.40
2023-01-07T09:55:23.030Z,1.90
2023-01-07T09:56:23.022Z,2.70
2023-01-07T09:57:23.010Z,2.40
2023-01-07T09:58:23.003Z,2.80
2023-01-07T09:59:23.022Z,2.10
2023-01-07T10:00:22.994Z,1.80
2023-01-07T10:01:23.076Z,2.20
2023-01-07T10:02:23.061Z,2.00
2023-01-07T10:03:23.008Z,2.50
2023-01-07T10:04:23.026Z,2.30
2023-01-07T10:05:23.006Z,1.90
2023-01-07T10:06:38.477Z,2.70
2023-01-07T10:07:23.002Z,1.80
2023-01-07T10:08:31.468Z,1.30
2023-01-07T10:09:23.004Z,2.30
2023-01-07T10:10:23.103Z,2.00
2023-01-07T10:11:22.985Z,1.70
2023-01-07T10:12:22.977Z,1.90
2023-01-07T10:13:22.995Z,1.80
2023-01-07T10:14:22.979Z,1.60
2023-01-07T10:15:22.996Z,2.80
2023-01-07T10:16:23.023Z,2.30
2023-01-07T10:17:22.995Z,2.30
2023-01-07T10:18:22.980Z,2.30
2023-01-07T10:19:22.983Z,2.00
2023-01-07T10:20:22.992Z,1.50
2023-01-07T10:21:22.984Z,1.80
2023-01-07T10:22:22.991Z,2.70
2023-01-07T10:23:22.972Z,1.90
2023-01-07T10:24:22.955Z,1.40
2023-01-07T10:25:22.972Z,2.50
2023-01-07T10:26:23.091Z,1.50
2023-01-07T10:27:22.962Z,1.70
2023-01-07T10:28:22.981Z,1.80
2023-01-07T10:29:22.968Z,1.60
2023-01-07T10:30:22.960Z,2.00
2023-01-07T10:31:23.020Z,1.80
2023-01-07T10:32:22.956Z,1.40
2023-01-07T10:33:22.966Z,2.10
2023-01-07T10:34:22.956Z,1.90
2023-01-07T10:35:22.953Z,2.20
2023-01-07T10:36:22.947Z,1.90
2023-01-07T10:37:22.952Z,1.70
2023-01-07T10:38:22.934Z,1.40
2023-01-07T10:39:22.946Z,2.60
2023-01-07T10:40:22.932Z,1.60
2023-01-07T10:41:22.982Z,1.80
2023-01-07T10:42:23.047Z,1.60
2023-01-07T10:43:22.938Z,1.60
2023-01-07T10:44:22.919Z,1.60
2023-01-07T10:45:22.939Z,1.60
2023-01-07T10:46:22.941Z,1.50
2023-01-07T10:47:22.969Z,1.50
2023-01-07T10:48:22.928Z,1.90
2023-01-07T10:49:22.920Z,1.60
2023-01-07T10:50:22.921Z,1.80
2023-01-07T10:51:22.950Z,1.20
2023-01-07T10:52:22.906Z,1.70
2023-01-07T10:53:22.909Z,1.40
2023-01-07T10:54:22.933Z,1.30
2023-01-07T10:55:22.917Z,1.40
2023-01-07T10:56:22.924Z,1.30
2023-01-07T10:57:22.973Z,1.20
2023-01-07T10:58:23.036Z,2.00
2023-01-07T10:59:22.919Z,1.60
2023-01-07T11:00:22.904Z,1.60
2023-01-07T11:01:23.049Z,1.30
2023-01-07T11:02:23.147Z,1.70
2023-01-07T11:03:22.911Z,1.70
2023-01-07T11:04:22.885Z,2.40
2023-01-07T11:05:22.922Z,3.00
2023-01-07T11:06:22.889Z,1.70
2023-01-07T11:07:22.910Z,1.40
2023-01-07T11:08:22.902Z,1.70
2023-01-07T11:09:22.884Z,1.50
2023-01-07T11:10:22.895Z,1.70
2023-01-07T11:11:22.902Z,1.70
2023-01-07T11:12:22.909Z,1.00
2023-01-07T11:13:22.887Z,1.00
2023-01-07T11:14:23.008Z,1.60
2023-01-07T11:15:22.889Z,1.20
2023-01-07T11:16:22.924Z,1.10
2023-01-07T11:17:22.877Z,1.60
2023-01-07T11:18:22.859Z,1.50
2023-01-07T11:19:22.875Z,1.50
2023-01-07T11:20:22.862Z,1.80
2023-01-07T11:21:42.685Z,2.00
2023-01-07T11:22:22.855Z,1.30
2023-01-07T11:23:22.887Z,1.40
2023-01-07T11:24:22.882Z,1.50
2023-01-07T11:25:22.850Z,1.50
2023-01-07T11:26:22.854Z,1.50
2023-01-07T11:27:22.862Z,1.60
2023-01-07T11:28:22.860Z,1.70
2023-01-07T11:29:22.860Z,1.30
2023-01-07T11:30:22.974Z,1.10
2023-01-07T11:31:22.981Z,1.40
2023-01-07T11:32:22.878Z,1.10
2023-01-07T11:33:22.855Z,1.10
2023-01-07T11:34:22.872Z,1.50
2023-01-07T11:35:23.225Z,1.40
2023-01-07T11:36:22.825Z,1.30
2023-01-07T11:37:22.844Z,1.20
2023-01-07T11:38:22.830Z,1.60
2023-01-07T11:39:22.823Z,1.00
2023-01-07T11:40:22.825Z,1.80
2023-01-07T11:41:22.845Z,0.90
2023-01-07T11:42:22.825Z,1.40
2023-01-07T11:43:22.842Z,1.40
2023-01-07T11:44:22.812Z,1.40
2023-01-07T11:45:22.838Z,1.00
2023-01-07T11:46:25.276Z,1.10
2023-01-07T11:47:22.832Z,1.30
2023-01-07T11:48:22.815Z,1.20
2023-01-07T11:49:22.816Z,1.40
2023-01-07T11:50:22.812Z,1.20
2023-01-07T11:51:22.819Z,1.20
2023-01-07T11:52:22.801Z,1.80
2023-01-07T11:53:22.806Z,1.10
2023-01-07T11:54:22.786Z,1.00
2023-01-07T11:55:22.805Z,1.00
2023-01-07T11:56:22.802Z,1.40
2023-01-07T11:57:22.802Z,1.30
2023-01-07T11:58:29.865Z,1.40
2023-01-07T11:59:22.795Z,1.90
2023-01-07T12:00:22.776Z,1.50
2023-01-07T12:01:22.874Z,1.50
2023-01-07T12:02:23.034Z,1.30
2023-01-07T12:03:22.887Z,1.70
2023-01-07T12:04:22.770Z,0.90
2023-01-07T12:05:22.770Z,1.40
2023-01-07T12:06:22.798Z,0.90
2023-01-07T12:07:22.786Z,1.40
2023-01-07T12:08:22.827Z,0.90
2023-01-07T12:09:22.773Z,1.20
2023-01-07T12:10:22.765Z,1.40
2023-01-07T12:11:22.788Z,1.20
2023-01-07T12:12:22.764Z,1.20
2023-01-07T12:13:22.764Z,1.50
2023-01-07T12:14:22.753Z,1.10
2023-01-07T12:15:22.748Z,1.30
2023-01-07T12:16:22.775Z,1.00
2023-01-07T12:17:22.757Z,1.30
2023-01-07T12:18:22.861Z,1.20
2023-01-07T12:19:22.784Z,1.50
2023-01-07T12:20:22.738Z,1.20
2023-01-07T12:21:22.751Z,0.80
2023-01-07T12:22:22.773Z,1.20
2023-01-07T12:23:22.734Z,1.00
2023-01-07T12:24:22.735Z,1.30
2023-01-07T12:25:22.732Z,1.20
2023-01-07T12:26:22.804Z,1.00
2023-01-07T12:27:22.743Z,1.10
2023-01-07T12:28:22.733Z,1.20
2023-01-07T12:29:22.738Z,1.30
2023-01-07T12:30:22.737Z,1.20
2023-01-07T12:31:22.887Z,1.10
2023-01-07T12:32:22.757Z,1.00
2023-01-07T12:33:22.729Z,1.00
2023-01-07T12:34:22.819Z,1.20
2023-01-07T12:35:22.712Z,1.10
2023-01-07T12:36:22.705Z,0.80
2023-01-07T12:37:22.710Z,1.10
2023-01-07T12:38:22.724Z,1.90
2023-01-07T12:39:22.718Z,1.00
2023-01-07T12:40:22.709Z,1.00
2023-01-07T12:41:22.715Z,1.20
2023-01-07T12:43:22.704Z,1.20
2023-01-07T12:44:22.690Z,0.80
2023-01-07T12:45:22.717Z,1.00
2023-01-07T12:46:22.725Z,1.10
2023-01-07T12:47:30.931Z,0.80
2023-01-07T12:48:22.770Z,1.00
2023-01-07T12:49:22.692Z,1.00
2023-01-07T12:50:22.808Z,1.70
2023-01-07T12:51:22.700Z,0.90
2023-01-07T12:52:22.686Z,0.90
2023-01-07T12:53:22.696Z,1.30
2023-01-07T12:54:22.678Z,1.40
2023-01-07T12:55:22.689Z,1.30
2023-01-07T12:56:23.769Z,0.90
2023-01-07T12:57:22.679Z,1.30
2023-01-07T12:58:22.680Z,1.20
2023-01-07T12:59:46.605Z,1.20
2023-01-07T13:00:22.669Z,1.40
2023-01-07T13:01:22.776Z,1.10
2023-01-07T13:02:22.708Z,1.30
2023-01-07T13:03:22.666Z,1.00
2023-01-07T13:04:22.699Z,1.20
2023-01-07T13:05:22.658Z,1.00
2023-01-07T13:06:22.672Z,1.00
2023-01-07T13:07:22.656Z,1.00
2023-01-07T13:08:22.655Z,1.20
2023-01-07T13:09:22.648Z,0.80
2023-01-07T13:10:22.658Z,1.00
2023-01-07T13:11:22.644Z,1.10
2023-01-07T13:12:40.569Z,1.40
2023-01-07T13:13:22.645Z,1.30
2023-01-07T13:14:22.659Z,0.90
2023-01-07T13:15:22.630Z,1.10
2023-01-07T13:16:22.690Z,1.20
2023-01-07T13:17:22.636Z,1.20
2023-01-07T13:18:22.621Z,1.00
2023-01-07T13:19:22.616Z,1.20